Time;durP1;ratioP1;P1;durP2;ratioP2;P2;SDS_P1;SDS_P2;PMS_P1;PMS_P2;Temp;Humidity;BMP_temperature;BMP_pressure;BME280_temperature;BME280_humidity;BME280_pressure;Samples;Min_cycle;Max_cycle;Signal;HPM_P1;HPM_P2
2020/12/23 00:00:46;;;;;;;17.07;12.57;;;12.60;99.90;;;;;;5033299;28;20179;-73
2020/12/23 00:03:12;;;;;;;13.03;10.77;;;12.70;99.90;;;;;;5035388;28;20238;-73
2020/12/23 00:05:38;;;;;;;12.70;10.67;;;12.60;99.90;;;;;;5053056;28;20194;-73
2020/12/23 00:08:03;;;;;;;13.10;11.43;;;12.60;99.90;;;;;;5053197;28;20659;-73
2020/12/23 00:10:28;;;;;;;12.93;11.47;;;12.50;99.90;;;;;;5049475;28;20179;-74
2020/12/23 00:12:54;;;;;;;14.70;11.37;;;12.50;99.90;;;;;;5033943;28;20201;-73
2020/12/23 00:15:20;;;;;;;18.40;13.23;;;12.50;99.90;;;;;;5043248;28;20213;-75
2020/12/23 00:17:45;;;;;;;18.03;13.70;;;12.60;99.90;;;;;;5047466;28;20218;-74
2020/12/23 00:20:11;;;;;;;16.97;12.47;;;12.50;99.90;;;;;;5034663;28;20532;-73
2020/12/23 00:22:36;;;;;;;15.77;12.83;;;12.50;99.90;;;;;;5033676;28;20298;-75
2020/12/23 00:25:04;;;;;;;16.60;12.47;;;12.60;99.90;;;;;;5049012;28;20178;-74
2020/12/23 00:27:29;;;;;;;15.07;11.90;;;12.60;99.90;;;;;;5040395;28;20638;-74
2020/12/23 00:29:55;;;;;;;16.30;12.80;;;12.60;99.90;;;;;;5048387;28;20412;-73
2020/12/23 00:32:21;;;;;;;14.80;11.43;;;12.50;99.90;;;;;;5044030;28;20677;-75
2020/12/23 00:34:47;;;;;;;13.00;10.67;;;12.50;99.90;;;;;;5053039;28;20216;-74
2020/12/23 00:37:13;;;;;;;16.40;11.30;;;12.50;99.90;;;;;;5038699;28;20195;-75
2020/12/23 00:39:38;;;;;;;15.50;10.53;;;12.50;99.90;;;;;;5049721;28;20475;-74
2020/12/23 00:42:04;;;;;;;13.60;10.80;;;12.50;99.90;;;;;;5054693;28;20277;-75
2020/12/23 00:44:29;;;;;;;12.30;10.10;;;12.50;99.90;;;;;;5036749;28;20195;-75
2020/12/23 00:46:55;;;;;;;14.40;11.37;;;12.50;99.90;;;;;;5051322;28;20269;-75
2020/12/23 00:49:20;;;;;;;12.13;8.93;;;12.50;99.90;;;;;;5055867;28;20182;-74
2020/12/23 00:51:49;;;;;;;10.93;8.63;;;12.50;99.90;;;;;;5048399;28;20182;-74
2020/12/23 00:54:14;;;;;;;11.10;9.90;;;12.50;99.90;;;;;;5038887;28;20183;-75
2020/12/23 00:56:40;;;;;;;11.10;9.90;;;12.40;99.90;;;;;;5040616;28;20749;-75
2020/12/23 00:59:05;;;;;;;12.10;9.20;;;12.40;99.90;;;;;;5048446;28;20214;-75
2020/12/23 01:01:31;;;;;;;11.43;9.67;;;12.30;99.90;;;;;;5055131;28;20187;-75
2020/12/23 01:03:56;;;;;;;14.10;9.50;;;12.40;99.90;;;;;;5055878;28;20174;-76
2020/12/23 01:06:22;;;;;;;16.07;10.93;;;12.40;99.90;;;;;;5054401;28;20209;-74
2020/12/23 01:08:47;;;;;;;15.37;9.63;;;12.40;99.90;;;;;;5036256;28;20233;-74
2020/12/23 01:11:13;;;;;;;11.40;9.30;;;12.40;99.90;;;;;;5044600;28;20182;-74
2020/12/23 01:13:39;;;;;;;13.37;10.23;;;12.40;99.90;;;;;;5039551;28;20174;-73
2020/12/23 01:16:05;;;;;;;13.70;10.00;;;12.40;99.90;;;;;;5048686;28;20245;-74
2020/12/23 01:18:31;;;;;;;12.20;9.40;;;12.40;99.90;;;;;;5045920;28;20822;-75
2020/12/23 01:20:56;;;;;;;13.03;9.70;;;12.40;99.90;;;;;;5050457;28;20820;-76
2020/12/23 01:23:22;;;;;;;10.50;8.73;;;12.40;99.90;;;;;;5044534;28;20680;-74
2020/12/23 01:25:55;;;;;;;13.63;9.77;;;12.40;99.90;;;;;;5045745;28;20190;-75
2020/12/23 01:28:21;;;;;;;16.57;11.17;;;12.40;99.90;;;;;;5054561;28;20205;-73
2020/12/23 01:30:47;;;;;;;15.60;11.40;;;12.40;99.90;;;;;;5044471;28;20460;-74
2020/12/23 01:33:12;;;;;;;18.20;11.40;;;12.40;99.90;;;;;;5050877;28;20481;-75
2020/12/23 01:35:38;;;;;;;16.97;10.90;;;12.40;99.90;;;;;;5046679;28;20789;-74
2020/12/23 01:38:04;;;;;;;17.63;12.43;;;12.40;99.90;;;;;;5050197;28;20198;-74
2020/12/23 01:40:30;;;;;;;18.80;11.77;;;12.40;99.90;;;;;;5043697;28;20228;-74
2020/12/23 01:42:55;;;;;;;18.73;11.50;;;12.40;99.90;;;;;;5046697;28;20491;-74
2020/12/23 01:45:21;;;;;;;19.23;13.00;;;12.40;99.90;;;;;;5054399;28;20203;-74
2020/12/23 01:47:46;;;;;;;20.80;13.07;;;12.50;99.90;;;;;;5044656;28;20181;-73
2020/12/23 01:50:13;;;;;;;17.70;12.13;;;12.50;99.90;;;;;;5035817;28;20167;-74
2020/12/23 01:52:39;;;;;;;17.40;12.20;;;12.50;99.90;;;;;;5037006;28;20724;-75
2020/12/23 01:55:07;;;;;;;19.10;11.73;;;12.50;99.90;;;;;;5039085;28;20421;-74
2020/12/23 01:57:34;;;;;;;16.97;12.40;;;12.40;99.90;;;;;;5053682;28;20170;-74
2020/12/23 01:59:59;;;;;;;17.90;12.00;;;12.50;99.90;;;;;;5052730;28;20421;-74
2020/12/23 02:02:29;;;;;;;16.53;11.17;;;12.50;99.90;;;;;;5035828;28;20760;-74
2020/12/23 02:04:57;;;;;;;14.40;10.27;;;12.40;99.90;;;;;;5043484;28;20171;-73
2020/12/23 02:07:23;;;;;;;13.40;9.17;;;12.40;99.90;;;;;;5035524;28;20445;-74
2020/12/23 02:09:52;;;;;;;13.67;9.47;;;12.40;99.90;;;;;;5051180;28;20470;-74
2020/12/23 02:12:17;;;;;;;12.40;8.87;;;12.40;99.90;;;;;;5039048;28;20422;-75
2020/12/23 02:14:43;;;;;;;12.63;9.50;;;12.40;99.90;;;;;;5053624;28;20895;-74
2020/12/23 02:17:09;;;;;;;11.30;9.27;;;12.40;99.90;;;;;;5038607;28;20195;-74
2020/12/23 02:19:49;;;;;;;13.10;9.70;;;12.40;99.90;;;;;;5041215;28;20693;-74
2020/12/23 02:22:18;;;;;;;12.40;9.10;;;12.40;99.90;;;;;;5036233;28;20917;-73
2020/12/23 02:24:45;;;;;;;13.90;10.87;;;12.40;99.90;;;;;;5041066;28;20710;-74
2020/12/23 02:27:11;;;;;;;14.77;11.80;;;12.50;99.90;;;;;;5043394;28;20978;-74
2020/12/23 02:29:36;;;;;;;14.37;10.77;;;12.50;99.90;;;;;;5043291;28;20493;-73
2020/12/23 02:32:02;;;;;;;14.60;11.53;;;12.40;99.90;;;;;;5051176;28;20257;-74
2020/12/23 02:34:27;;;;;;;14.50;11.70;;;12.50;99.90;;;;;;5034784;28;20271;-73
2020/12/23 02:36:53;;;;;;;15.80;11.60;;;12.50;99.90;;;;;;5034786;28;20205;-74
2020/12/23 02:39:18;;;;;;;21.70;13.33;;;12.40;99.90;;;;;;5034965;28;20218;-73
2020/12/23 02:41:44;;;;;;;17.77;12.40;;;12.40;99.90;;;;;;5034681;28;20179;-73
2020/12/23 02:44:10;;;;;;;17.20;12.40;;;12.40;99.90;;;;;;5042603;28;20201;-73
2020/12/23 02:46:35;;;;;;;16.73;12.70;;;12.50;99.90;;;;;;5050762;28;20266;-74
2020/12/23 02:49:01;;;;;;;19.03;12.57;;;12.50;99.90;;;;;;5034748;28;20593;-74
2020/12/23 02:51:26;;;;;;;17.33;14.23;;;12.50;99.90;;;;;;5044979;28;20177;-73
2020/12/23 02:53:52;;;;;;;18.20;13.40;;;12.50;99.90;;;;;;5045367;28;20178;-73
2020/12/23 02:56:17;;;;;;;18.30;13.80;;;12.50;99.90;;;;;;5045626;28;20282;-73
2020/12/23 02:58:43;;;;;;;17.77;13.13;;;12.50;99.90;;;;;;5053332;28;20637;-73
2020/12/23 03:01:08;;;;;;;17.43;12.87;;;12.50;99.90;;;;;;5046163;28;20184;-73
2020/12/23 03:03:34;;;;;;;15.70;13.20;;;12.60;99.90;;;;;;5054021;28;20194;-73
2020/12/23 03:05:59;;;;;;;17.43;13.40;;;12.60;99.90;;;;;;5047113;28;20213;-74
2020/12/23 03:08:25;;;;;;;16.50;13.10;;;12.60;99.90;;;;;;5047648;28;20276;-73
2020/12/23 03:10:50;;;;;;;15.40;12.60;;;12.60;99.90;;;;;;5049031;28;20182;-74
2020/12/23 03:13:16;;;;;;;16.47;12.70;;;12.60;99.90;;;;;;5053503;28;20190;-74
2020/12/23 03:15:41;;;;;;;15.80;13.40;;;12.60;99.90;;;;;;5047542;28;20529;-74
2020/12/23 03:18:07;;;;;;;18.40;13.10;;;12.60;99.90;;;;;;5042949;28;20207;-74
2020/12/23 03:20:32;;;;;;;16.10;12.80;;;12.60;99.90;;;;;;5041337;28;20228;-73
2020/12/23 03:22:58;;;;;;;15.53;12.40;;;12.50;99.90;;;;;;5042297;28;20552;-74
2020/12/23 03:25:23;;;;;;;16.70;12.70;;;12.60;99.90;;;;;;5041793;28;20670;-74
2020/12/23 03:27:49;;;;;;;16.37;12.90;;;12.60;99.90;;;;;;5034558;28;20198;-73
2020/12/23 03:30:14;;;;;;;14.73;11.60;;;12.60;99.90;;;;;;5042152;28;20540;-73
2020/12/23 03:32:40;;;;;;;13.87;12.43;;;12.60;99.90;;;;;;5050318;28;20248;-73
2020/12/23 03:35:05;;;;;;;17.37;12.60;;;12.60;99.90;;;;;;5046366;28;20236;-74
2020/12/23 03:37:31;;;;;;;15.23;12.27;;;12.70;99.90;;;;;;5053042;28;20197;-74
2020/12/23 03:39:56;;;;;;;15.57;12.03;;;12.70;99.90;;;;;;5053071;28;20249;-73
2020/12/23 03:42:22;;;;;;;16.57;12.17;;;12.60;99.90;;;;;;5053168;28;20633;-74
2020/12/23 03:44:47;;;;;;;12.67;11.13;;;12.60;99.90;;;;;;5037277;28;20190;-74
2020/12/23 03:47:13;;;;;;;14.40;12.80;;;12.60;99.90;;;;;;5042076;28;20198;-74
2020/12/23 03:49:38;;;;;;;15.10;12.13;;;12.60;99.90;;;;;;5039584;28;20652;-74
2020/12/23 03:52:04;;;;;;;15.17;12.80;;;12.70;99.90;;;;;;5036720;28;20179;-74
2020/12/23 03:54:29;;;;;;;15.57;12.03;;;12.70;99.90;;;;;;5053002;28;20174;-74
2020/12/23 03:56:55;;;;;;;14.23;11.63;;;12.70;99.90;;;;;;5052627;28;20357;-74
2020/12/23 03:59:20;;;;;;;12.83;11.07;;;12.60;99.90;;;;;;5052645;28;20206;-74
2020/12/23 04:01:45;;;;;;;16.70;11.80;;;12.60;99.90;;;;;;5053154;28;20205;-75
2020/12/23 04:04:11;;;;;;;12.87;11.37;;;12.60;99.90;;;;;;5052429;28;20236;-74
2020/12/23 04:06:36;;;;;;;12.40;10.80;;;12.60;99.90;;;;;;5040874;28;20230;-74
2020/12/23 04:09:02;;;;;;;12.77;9.77;;;12.60;99.90;;;;;;5033587;28;20195;-73
2020/12/23 04:11:28;;;;;;;12.13;9.30;;;12.50;99.90;;;;;;5043147;28;20265;-74
2020/12/23 04:13:53;;;;;;;10.37;9.13;;;12.50;99.90;;;;;;5052458;28;20178;-74
2020/12/23 04:16:19;;;;;;;10.47;9.40;;;12.50;99.90;;;;;;5044555;28;20198;-74
2020/12/23 04:18:44;;;;;;;10.13;8.93;;;12.50;99.90;;;;;;5041403;28;20221;-74
2020/12/23 04:21:10;;;;;;;13.27;9.70;;;12.60;99.90;;;;;;5033419;28;20254;-74
2020/12/23 04:23:35;;;;;;;10.20;9.10;;;12.60;99.90;;;;;;5051114;28;20174;-74
2020/12/23 04:26:01;;;;;;;11.10;9.33;;;12.60;99.90;;;;;;5040112;28;20210;-74
2020/12/23 04:28:26;;;;;;;10.30;8.23;;;12.60;99.90;;;;;;5033743;28;20650;-75
2020/12/23 04:30:52;;;;;;;8.77;7.97;;;12.60;99.90;;;;;;5051934;28;20650;-74
2020/12/23 04:33:17;;;;;;;8.77;7.90;;;12.50;99.90;;;;;;5045475;28;20193;-74
2020/12/23 04:35:43;;;;;;;8.63;7.73;;;12.50;99.90;;;;;;5053455;28;20213;-74
2020/12/23 04:38:08;;;;;;;10.60;7.27;;;12.50;99.90;;;;;;5053157;28;20198;-74
2020/12/23 04:40:39;;;;;;;8.40;7.60;;;12.50;99.90;;;;;;5043458;28;20185;-74
2020/12/23 04:43:05;;;;;;;9.80;7.40;;;12.40;99.90;;;;;;5052289;28;20264;-73
2020/12/23 04:45:31;;;;;;;8.93;7.63;;;12.40;99.90;;;;;;5051199;28;20433;-74
2020/12/23 04:47:57;;;;;;;7.80;7.10;;;12.40;99.90;;;;;;5035837;28;20783;-74
2020/12/23 04:50:26;;;;;;;8.77;7.23;;;12.40;99.90;;;;;;5033144;28;20175;-74
2020/12/23 04:52:52;;;;;;;6.80;6.20;;;12.40;99.90;;;;;;5041421;28;20420;-74
2020/12/23 04:55:18;;;;;;;8.27;7.47;;;12.40;99.90;;;;;;5033548;28;20507;-74
2020/12/23 04:57:44;;;;;;;6.30;5.80;;;12.40;99.90;;;;;;5033345;28;20950;-74
2020/12/23 05:00:10;;;;;;;8.50;7.63;;;12.50;99.90;;;;;;5033669;28;20275;-74
2020/12/23 05:02:35;;;;;;;6.10;5.50;;;12.50;99.90;;;;;;5052349;28;20492;-74
2020/12/23 05:05:01;;;;;;;5.70;4.23;;;12.50;99.90;;;;;;5036796;28;20182;-74
2020/12/23 05:07:26;;;;;;;10.00;5.20;;;12.50;99.90;;;;;;5066771;28;20225;-74
2020/12/23 05:09:52;;;;;;;4.10;3.80;;;12.50;99.90;;;;;;5047183;28;20167;-74
2020/12/23 05:12:18;;;;;;;4.40;4.00;;;12.40;99.90;;;;;;5041261;28;20181;-74
2020/12/23 05:14:45;;;;;;;4.67;3.80;;;12.30;99.90;;;;;;5049298;28;20677;-73
2020/12/23 05:17:10;;;;;;;3.93;3.50;;;12.30;99.90;;;;;;5048893;28;20441;-74
2020/12/23 05:19:40;;;;;;;4.13;3.83;;;12.30;99.90;;;;;;5033795;28;20558;-75
2020/12/23 05:22:07;;;;;;;4.10;3.80;;;12.30;99.90;;;;;;5034563;28;20190;-74
2020/12/23 05:24:37;;;;;;;4.13;2.97;;;12.40;99.90;;;;;;5052596;28;20416;-74
2020/12/23 05:27:05;;;;;;;3.90;3.40;;;12.30;99.90;;;;;;5036264;28;20435;-74
2020/12/23 05:29:30;;;;;;;3.20;2.90;;;12.30;99.90;;;;;;5044133;28;20431;-74
2020/12/23 05:31:56;;;;;;;3.70;2.70;;;12.20;99.90;;;;;;5055853;28;20412;-73
2020/12/23 05:34:22;;;;;;;2.80;2.60;;;12.30;99.90;;;;;;5055371;28;20452;-73
2020/12/23 05:36:50;;;;;;;2.60;2.40;;;12.30;99.90;;;;;;5055009;28;20193;-73
2020/12/23 05:39:16;;;;;;;2.40;2.30;;;12.30;99.90;;;;;;5051293;28;20226;-73
2020/12/23 05:41:41;;;;;;;2.40;2.30;;;12.30;99.90;;;;;;5036577;28;20464;-73
2020/12/23 05:44:15;;;;;;;2.83;2.70;;;12.40;99.90;;;;;;5044916;28;20254;-74
2020/12/23 05:46:40;;;;;;;3.83;2.90;;;12.40;99.90;;;;;;5036154;28;20282;-73
2020/12/23 05:49:07;;;;;;;2.80;2.60;;;12.30;99.90;;;;;;5044230;28;20519;-73
2020/12/23 05:51:36;;;;;;;3.00;2.80;;;12.40;99.90;;;;;;5043452;28;20171;-72
2020/12/23 05:54:04;;;;;;;3.77;3.47;;;12.40;99.90;;;;;;5036058;28;20741;-73
2020/12/23 05:56:34;;;;;;;3.67;3.37;;;12.30;99.90;;;;;;5035777;28;20556;-73
2020/12/23 05:59:00;;;;;;;3.60;3.40;;;12.40;99.90;;;;;;5051770;28;20452;-73
2020/12/23 06:01:25;;;;;;;4.17;3.87;;;12.40;99.90;;;;;;5035651;28;20417;-73
2020/12/23 06:03:55;;;;;;;4.80;4.17;;;12.40;99.90;;;;;;5035440;28;20214;-73
2020/12/23 06:06:22;;;;;;;5.00;4.60;;;12.40;99.90;;;;;;5037755;28;20214;-73
2020/12/23 06:08:55;;;;;;;5.30;4.33;;;12.40;99.90;;;;;;5054987;28;20419;-73
2020/12/23 06:11:29;;;;;;;6.23;4.80;;;12.40;99.90;;;;;;5046241;28;20421;-74
2020/12/23 06:14:03;;;;;;;5.07;4.67;;;12.40;99.90;;;;;;5035461;28;20478;-73
2020/12/23 06:16:33;;;;;;;4.77;4.37;;;12.40;99.90;;;;;;5035640;28;20932;-73
2020/12/23 06:19:11;;;;;;;5.53;5.03;;;12.40;99.90;;;;;;5048466;28;20471;-73
2020/12/23 06:21:38;;;;;;;5.43;4.93;;;12.50;99.90;;;;;;5054742;28;20420;-73
2020/12/23 06:24:06;;;;;;;6.10;5.40;;;12.50;99.90;;;;;;5049390;28;20912;-72
2020/12/23 06:26:35;;;;;;;6.20;5.60;;;12.50;99.90;;;;;;5050630;28;20547;-73
2020/12/23 06:29:03;;;;;;;6.70;5.40;;;12.50;99.90;;;;;;5055478;28;20524;-74
2020/12/23 06:31:48;;;;;;;6.13;5.53;;;12.50;99.90;;;;;;5056588;28;20436;-73
2020/12/23 06:34:22;;;;;;;5.60;5.10;;;12.50;99.90;;;;;;5043270;28;20471;-73
2020/12/23 06:36:49;;;;;;;6.77;5.93;;;12.50;99.90;;;;;;5043463;28;20449;-73
2020/12/23 06:39:26;;;;;;;7.00;5.60;;;12.50;99.90;;;;;;5044095;28;20457;-73
2020/12/23 06:42:16;;;;;;;7.63;6.93;;;12.60;99.90;;;;;;5043604;28;20441;-73
2020/12/23 06:44:44;;;;;;;6.57;5.97;;;12.60;99.90;;;;;;5056325;28;20515;-74
2020/12/23 06:47:15;;;;;;;7.27;6.47;;;12.60;99.90;;;;;;5048657;28;20513;-72
2020/12/23 06:49:49;;;;;;;8.37;6.80;;;12.60;99.90;;;;;;5035430;28;20449;-73
2020/12/23 06:52:21;;;;;;;7.30;6.60;;;12.60;99.90;;;;;;5037989;28;20413;-73
2020/12/23 06:54:48;;;;;;;7.03;6.40;;;12.60;99.90;;;;;;5047552;28;20429;-73
2020/12/23 06:57:35;;;;;;;7.97;6.23;;;12.60;99.90;;;;;;5036119;28;20837;-73
2020/12/23 07:00:24;;;;;;;6.53;5.83;;;12.60;99.90;;;;;;5035153;28;20507;-73
2020/12/23 07:02:51;;;;;;;6.87;6.17;;;12.60;99.90;;;;;;5036289;28;20484;-73
2020/12/23 07:05:23;;;;;;;7.17;6.30;;;12.60;99.90;;;;;;5041923;28;20473;-73
2020/12/23 07:07:53;;;;;;;5.67;5.07;;;12.60;99.90;;;;;;5034557;28;20504;-73
2020/12/23 07:10:21;;;;;;;5.83;5.23;;;12.60;99.90;;;;;;5035205;28;20464;-73
2020/12/23 07:12:55;;;;;;;5.63;4.83;;;12.70;99.90;;;;;;5054339;28;20478;-73
2020/12/23 07:15:25;;;;;;;5.53;4.93;;;12.70;99.90;;;;;;5052713;28;20824;-74
2020/12/23 07:18:05;;;;;;;4.40;4.00;;;12.70;99.90;;;;;;5049135;28;20935;-74
2020/12/23 07:20:44;;;;;;;5.07;4.50;;;12.70;99.90;;;;;;5048334;28;20786;-73
2020/12/23 07:23:12;;;;;;;4.27;3.87;;;12.70;99.90;;;;;;5038855;28;20425;-73
2020/12/23 07:25:48;;;;;;;5.20;4.70;;;12.70;99.90;;;;;;5042122;28;20539;-74
2020/12/23 07:28:31;;;;;;;5.50;5.00;;;12.70;99.90;;;;;;5052891;28;20518;-74
2020/12/23 07:30:58;;;;;;;6.00;5.40;;;12.80;99.90;;;;;;5045130;28;20915;-74
2020/12/23 07:33:25;;;;;;;6.00;4.77;;;12.80;99.90;;;;;;5038401;28;20495;-74
2020/12/23 07:35:53;;;;;;;4.97;4.37;;;12.80;99.90;;;;;;5031973;28;20449;-73
2020/12/23 07:38:20;;;;;;;4.97;4.57;;;12.80;99.90;;;;;;5047261;28;20880;-74
2020/12/23 07:40:47;;;;;;;4.50;4.07;;;12.80;99.90;;;;;;5051835;28;20443;-74
2020/12/23 07:43:15;;;;;;;4.03;3.70;;;12.80;99.90;;;;;;5048494;28;20493;-74
2020/12/23 07:45:42;;;;;;;4.20;3.90;;;12.80;99.90;;;;;;5048773;28;20543;-73
2020/12/23 07:48:10;;;;;;;4.53;4.13;;;12.80;99.90;;;;;;5034595;28;20598;-73
2020/12/23 07:50:38;;;;;;;5.07;4.57;;;12.70;99.90;;;;;;5034014;28;20455;-72
2020/12/23 07:53:18;;;;;;;5.93;5.30;;;12.70;99.90;;;;;;5037463;28;20455;-73
2020/12/23 07:55:45;;;;;;;4.43;4.03;;;12.70;99.90;;;;;;5052881;28;20816;-73
2020/12/23 07:58:11;;;;;;;4.07;3.70;;;12.70;99.90;;;;;;5051428;28;20467;-73
2020/12/23 08:00:39;;;;;;;3.70;3.30;;;12.70;99.90;;;;;;5042699;28;20807;-73
2020/12/23 08:03:08;;;;;;;3.27;2.97;;;12.70;99.90;;;;;;5036655;28;20788;-73
2020/12/23 08:05:34;;;;;;;3.20;3.00;;;12.80;99.90;;;;;;5047924;28;20445;-72
2020/12/23 08:08:00;;;;;;;5.03;4.53;;;12.80;99.90;;;;;;5047375;28;20421;-73
2020/12/23 08:10:25;;;;;;;4.33;4.00;;;12.70;99.90;;;;;;5055427;28;20423;-73
2020/12/23 08:12:57;;;;;;;4.13;3.73;;;12.70;99.90;;;;;;5048037;28;20264;-73
2020/12/23 08:15:25;;;;;;;5.13;4.13;;;12.70;99.90;;;;;;5054583;28;20271;-73
2020/12/23 08:18:04;;;;;;;4.30;3.80;;;12.70;99.90;;;;;;5031201;28;20824;-73
2020/12/23 08:20:30;;;;;;;3.87;3.57;;;12.70;99.90;;;;;;5033102;28;20425;-74
2020/12/23 08:22:58;;;;;;;4.07;3.60;;;12.70;99.90;;;;;;5045656;28;20444;-73
2020/12/23 08:25:27;;;;;;;5.10;4.60;;;12.70;99.90;;;;;;5051433;28;20444;-74
2020/12/23 08:27:57;;;;;;;3.90;3.60;;;12.70;99.90;;;;;;5052465;28;20779;-74
2020/12/23 08:30:24;;;;;;;4.20;3.60;;;12.70;99.90;;;;;;5039201;28;20545;-74
2020/12/23 08:33:11;;;;;;;4.00;3.40;;;12.70;99.90;;;;;;5040047;28;20990;-73
2020/12/23 08:35:39;;;;;;;3.10;2.90;;;12.70;99.90;;;;;;5048829;28;20761;-73
2020/12/23 08:38:15;;;;;;;2.73;2.53;;;12.70;99.90;;;;;;5051582;28;20437;-73
2020/12/23 08:40:48;;;;;;;2.60;2.40;;;12.70;99.90;;;;;;5050341;28;20431;-73
2020/12/23 08:43:30;;;;;;;2.90;2.57;;;12.60;99.90;;;;;;5043238;28;20413;-74
2020/12/23 08:46:00;;;;;;;3.27;2.97;;;12.70;99.90;;;;;;5061930;28;20441;-73
2020/12/23 08:48:28;;;;;;;3.37;3.07;;;12.70;99.90;;;;;;5046422;28;20865;-73
2020/12/23 08:50:56;;;;;;;2.53;2.30;;;12.70;99.90;;;;;;5034912;28;20839;-73
2020/12/23 08:53:33;;;;;;;2.30;2.10;;;12.80;99.90;;;;;;5052191;28;20416;-73
2020/12/23 08:55:59;;;;;;;2.27;2.07;;;12.80;99.90;;;;;;5043563;28;20442;-73
2020/12/23 08:58:25;;;;;;;4.10;1.97;;;12.90;99.90;;;;;;5047742;28;20531;-73
2020/12/23 09:01:02;;;;;;;1.73;1.60;;;12.90;99.90;;;;;;5055440;28;20459;-73
2020/12/23 09:03:28;;;;;;;1.83;1.73;;;12.90;99.90;;;;;;5040749;28;20751;-73
2020/12/23 09:05:58;;;;;;;1.60;1.50;;;12.90;99.90;;;;;;5053199;28;20806;-73
2020/12/23 09:08:25;;;;;;;2.13;1.67;;;12.90;99.90;;;;;;5049197;28;20425;-73
2020/12/23 09:10:53;;;;;;;1.90;1.50;;;12.90;99.90;;;;;;5036464;28;20865;-73
2020/12/23 09:13:18;;;;;;;1.10;1.10;;;12.90;99.90;;;;;;5055814;28;20421;-73
2020/12/23 09:15:52;;;;;;;1.13;1.03;;;13.00;99.90;;;;;;5047678;28;20468;-73
2020/12/23 09:18:18;;;;;;;1.20;1.20;;;13.00;99.90;;;;;;5039236;28;20202;-72
2020/12/23 09:20:43;;;;;;;0.87;0.87;;;13.00;99.90;;;;;;5035491;28;20429;-75
2020/12/23 09:23:11;;;;;;;2.30;1.30;;;13.10;99.90;;;;;;5045759;28;20417;-74
2020/12/23 09:25:37;;;;;;;1.17;1.07;;;13.00;99.90;;;;;;5040555;28;20241;-73
2020/12/23 09:28:14;;;;;;;1.17;1.17;;;13.10;99.90;;;;;;5052181;28;20437;-73
2020/12/23 09:30:50;;;;;;;3.13;1.23;;;13.10;99.90;;;;;;5048514;28;20769;-73
2020/12/23 09:33:18;;;;;;;1.23;1.13;;;13.10;99.90;;;;;;5051539;28;20504;-72
2020/12/23 09:35:45;;;;;;;1.33;1.20;;;13.10;99.90;;;;;;5052527;28;20495;-73
2020/12/23 09:38:18;;;;;;;1.23;1.13;;;13.10;99.90;;;;;;5053781;28;20824;-73
2020/12/23 09:40:58;;;;;;;1.00;1.00;;;13.10;99.90;;;;;;5050561;28;20493;-73
2020/12/23 09:43:28;;;;;;;0.93;0.93;;;13.20;99.90;;;;;;5051289;28;20420;-73
2020/12/23 09:45:56;;;;;;;1.33;1.10;;;13.20;99.90;;;;;;5048175;28;20435;-73
2020/12/23 09:48:23;;;;;;;0.80;0.80;;;13.30;99.90;;;;;;5051794;28;20436;-73
2020/12/23 09:50:49;;;;;;;1.00;0.90;;;13.20;99.90;;;;;;5051113;28;21006;-73
2020/12/23 09:53:15;;;;;;;0.80;0.80;;;13.30;99.90;;;;;;5052325;28;20882;-73
2020/12/23 09:55:44;;;;;;;0.90;0.80;;;13.40;99.90;;;;;;5051070;28;20444;-73
2020/12/23 09:58:11;;;;;;;0.80;0.80;;;13.40;99.90;;;;;;5051872;28;20958;-73
2020/12/23 10:00:37;;;;;;;1.20;1.07;;;13.40;99.90;;;;;;5051634;28;20975;-74
2020/12/23 10:03:03;;;;;;;1.27;1.10;;;13.50;99.90;;;;;;5052168;28;20435;-73
2020/12/23 10:05:29;;;;;;;3.00;1.00;;;13.50;99.90;;;;;;5049666;28;20449;-74
2020/12/23 10:07:55;;;;;;;0.80;0.80;;;13.50;99.90;;;;;;5051548;28;20413;-73
2020/12/23 10:10:20;;;;;;;0.80;0.80;;;13.50;99.90;;;;;;5051793;28;20474;-74
2020/12/23 10:12:46;;;;;;;1.23;1.07;;;13.60;99.90;;;;;;5047965;28;20665;-74
2020/12/23 10:15:11;;;;;;;0.90;0.90;;;13.50;99.90;;;;;;5050187;28;20181;-73
2020/12/23 10:17:38;;;;;;;0.90;0.90;;;13.60;99.90;;;;;;5050113;28;20171;-73
2020/12/23 10:20:05;;;;;;;0.90;0.80;;;13.60;99.90;;;;;;5051487;28;20303;-76
2020/12/23 10:22:31;;;;;;;3.33;1.20;;;13.60;99.90;;;;;;5052617;28;20857;-74
2020/12/23 10:24:56;;;;;;;2.60;1.23;;;13.70;99.90;;;;;;5050322;28;20524;-75
2020/12/23 10:27:22;;;;;;;1.33;1.23;;;13.90;99.90;;;;;;5052604;28;20178;-75
2020/12/23 10:29:47;;;;;;;3.33;1.00;;;14.10;99.90;;;;;;5051237;28;20276;-76
2020/12/23 10:32:13;;;;;;;1.27;1.10;;;14.20;99.90;;;;;;5052760;28;20170;-76
2020/12/23 10:34:39;;;;;;;1.40;1.20;;;14.30;99.90;;;;;;5052142;28;20193;-76
2020/12/23 10:37:05;;;;;;;1.40;1.30;;;14.40;99.90;;;;;;5049794;28;20528;-75
2020/12/23 10:39:31;;;;;;;1.63;0.90;;;14.50;99.90;;;;;;5017279;28;20482;-72
2020/12/23 10:41:56;;;;;;;1.20;1.10;;;14.60;99.90;;;;;;5048489;28;20198;-73
2020/12/23 10:44:23;;;;;;;0.80;0.80;;;14.60;99.90;;;;;;5049242;28;20178;-72
2020/12/23 10:46:58;;;;;;;2.73;0.90;;;14.50;99.90;;;;;;5049475;28;20194;-72
2020/12/23 10:49:25;;;;;;;0.83;0.80;;;14.50;99.90;;;;;;5050756;28;20844;-73
2020/12/23 10:51:52;;;;;;;1.77;0.90;;;14.40;99.90;;;;;;5050131;28;20439;-72
2020/12/23 10:54:18;;;;;;;1.20;1.10;;;14.40;99.90;;;;;;5049780;28;20448;-73
2020/12/23 10:56:44;;;;;;;1.80;0.90;;;14.30;99.90;;;;;;5050935;28;20432;-73
2020/12/23 10:59:10;;;;;;;0.70;0.70;;;14.30;99.90;;;;;;5051915;28;20472;-72
2020/12/23 11:01:38;;;;;;;0.60;0.60;;;14.30;99.90;;;;;;5051957;28;20177;-72
2020/12/23 11:04:04;;;;;;;0.93;0.80;;;14.20;99.90;;;;;;5052136;28;20491;-72
2020/12/23 11:06:30;;;;;;;1.20;1.10;;;14.20;99.90;;;;;;5051261;28;20805;-72
2020/12/23 11:08:56;;;;;;;1.20;1.10;;;14.10;99.90;;;;;;5049487;28;20456;-72
2020/12/23 11:11:22;;;;;;;1.10;0.90;;;14.10;99.90;;;;;;5049877;28;20431;-73
2020/12/23 11:13:47;;;;;;;1.70;1.30;;;14.20;99.90;;;;;;5050532;28;20435;-73
2020/12/23 11:16:17;;;;;;;2.73;1.10;;;14.10;99.90;;;;;;5048637;28;20285;-72
2020/12/23 11:18:45;;;;;;;1.33;0.90;;;14.10;99.90;;;;;;5041280;28;20251;-73
2020/12/23 11:21:10;;;;;;;2.03;1.07;;;14.10;99.90;;;;;;5048990;28;20436;-72
2020/12/23 11:23:36;;;;;;;1.20;1.13;;;14.10;99.90;;;;;;5052102;28;20407;-74
2020/12/23 11:26:02;;;;;;;0.83;0.80;;;14.00;99.90;;;;;;5050138;28;20198;-72
2020/12/23 11:28:29;;;;;;;1.20;1.10;;;14.00;99.90;;;;;;5050208;28;20638;-72
2020/12/23 11:30:59;;;;;;;1.30;1.20;;;14.00;99.90;;;;;;5051730;28;20428;-72
2020/12/23 11:33:28;;;;;;;2.83;1.13;;;14.00;99.90;;;;;;5050893;28;20509;-72
2020/12/23 11:35:54;;;;;;;1.10;1.10;;;14.00;99.90;;;;;;5051760;28;20934;-73
2020/12/23 11:38:20;;;;;;;2.50;0.97;;;13.90;99.90;;;;;;5051603;28;20803;-73
2020/12/23 11:40:46;;;;;;;1.00;1.00;;;13.90;99.90;;;;;;5051348;28;20440;-73
2020/12/23 11:43:11;;;;;;;1.70;1.10;;;13.90;99.90;;;;;;5051653;28;20413;-73
2020/12/23 11:45:37;;;;;;;1.13;1.03;;;13.80;99.90;;;;;;5051363;28;20369;-73
2020/12/23 11:48:02;;;;;;;1.00;1.00;;;13.80;99.90;;;;;;5049454;28;20532;-72
2020/12/23 11:50:28;;;;;;;1.10;1.00;;;13.80;99.90;;;;;;5051515;28;20652;-73
2020/12/23 11:52:53;;;;;;;0.93;0.93;;;13.80;99.90;;;;;;5051298;28;20217;-73
2020/12/23 11:55:19;;;;;;;1.13;1.00;;;13.80;99.90;;;;;;5051312;28;20197;-73
2020/12/23 11:57:45;;;;;;;1.00;1.00;;;13.80;99.90;;;;;;5049867;28;20581;-73
2020/12/23 12:00:11;;;;;;;1.43;1.33;;;13.80;99.90;;;;;;5046848;28;20212;-73
2020/12/23 12:02:37;;;;;;;1.60;1.20;;;13.80;99.90;;;;;;5050194;28;20800;-73
2020/12/23 12:05:03;;;;;;;1.20;1.10;;;13.70;99.90;;;;;;5050814;28;20562;-74
2020/12/23 12:07:29;;;;;;;5.20;2.90;;;13.70;99.90;;;;;;5051015;28;20173;-72
2020/12/23 12:09:55;;;;;;;2.30;2.10;;;13.70;99.90;;;;;;5051237;28;20519;-72
2020/12/23 12:12:20;;;;;;;2.30;1.97;;;13.70;99.90;;;;;;5064030;28;21005;-72
2020/12/23 12:14:46;;;;;;;2.30;2.10;;;13.60;99.90;;;;;;5055028;28;20178;-72
2020/12/23 12:17:12;;;;;;;4.60;2.80;;;13.70;99.90;;;;;;5051696;28;20194;-72
2020/12/23 12:19:37;;;;;;;1.93;1.83;;;13.80;99.90;;;;;;5050714;28;20233;-72
2020/12/23 12:22:03;;;;;;;3.03;2.30;;;13.80;99.90;;;;;;5050283;28;20228;-72
2020/12/23 12:24:28;;;;;;;2.20;2.00;;;13.70;99.90;;;;;;5051451;28;20240;-72
2020/12/23 12:26:54;;;;;;;2.40;2.20;;;13.80;99.90;;;;;;5051174;28;20261;-73
2020/12/23 12:29:19;;;;;;;2.33;1.80;;;13.70;99.90;;;;;;5051046;28;20640;-72
2020/12/23 12:31:47;;;;;;;3.10;2.87;;;13.70;99.90;;;;;;5055841;28;20196;-72
2020/12/23 12:34:12;;;;;;;1.87;1.77;;;13.70;99.90;;;;;;5056757;28;20279;-72
2020/12/23 12:36:38;;;;;;;2.33;2.23;;;13.70;99.90;;;;;;5053852;28;20440;-73
2020/12/23 12:39:04;;;;;;;1.83;1.73;;;13.70;99.90;;;;;;5052628;28;20567;-73
2020/12/23 12:41:29;;;;;;;1.47;1.30;;;13.70;99.90;;;;;;5057435;28;20178;-72